sensor_id;sensor_type;location;lat;lon;timestamp;pressure;altitude;pressure_sealevel;temperature;humidity
60583;BME280;46415;47.536;19.066;2023-06-22T00:00:31;-18802.28;;;21.18;100.00
60583;BME280;46415;47.536;19.066;2023-06-22T00:03:34;-18800.94;;;21.13;100.00
60583;BME280;46415;47.536;19.066;2023-06-22T00:06:37;-18800.94;;;21.13;100.00
60583;BME280;46415;47.536;19.066;2023-06-22T00:09:40;-18799.84;;;21.09;100.00
60583;BME280;46415;47.536;19.066;2023-06-22T00:12:43;-18801.06;;;21.13;100.00
60583;BME280;46415;47.536;19.066;2023-06-22T00:15:45;-18801.06;;;21.13;100.00
60583;BME280;46415;47.536;19.066;2023-06-22T00:18:48;-18800.09;;;21.10;100.00
60583;BME280;46415;47.536;19.066;2023-06-22T00:21:51;-18799.84;;;21.09;100.00
60583;BME280;46415;47.536;19.066;2023-06-22T00:24:57;-18800.09;;;21.10;100.00
60583;BME280;46415;47.536;19.066;2023-06-22T00:27:59;-18800.09;;;21.10;100.00
60583;BME280;46415;47.536;19.066;2023-06-22T00:31:02;-18799.72;;;21.08;100.00
60583;BME280;46415;47.536;19.066;2023-06-22T00:34:05;-18796.31;;;20.96;100.00
60583;BME280;46415;47.536;19.066;2023-06-22T00:37:09;-18795.22;;;20.92;100.00
60583;BME280;46415;47.536;19.066;2023-06-22T00:40:13;-18794.97;;;20.91;100.00
60583;BME280;46415;47.536;19.066;2023-06-22T00:43:17;-18794.16;;;20.88;100.00
60583;BME280;46415;47.536;19.066;2023-06-22T00:46:21;-18793.06;;;20.84;100.00
60583;BME280;46415;47.536;19.066;2023-06-22T00:49:25;-18791.97;;;20.79;100.00
60583;BME280;46415;47.536;19.066;2023-06-22T00:52:28;-18790.22;;;20.73;100.00
60583;BME280;46415;47.536;19.066;2023-06-22T00:55:33;-18789.94;;;20.72;100.00
60583;BME280;46415;47.536;19.066;2023-06-22T00:58:40;-18790.34;;;20.73;100.00
60583;BME280;46415;47.536;19.066;2023-06-22T01:01:44;-18789.66;;;20.71;100.00
60583;BME280;46415;47.536;19.066;2023-06-22T01:04:47;-18789.41;;;20.70;100.00
60583;BME280;46415;47.536;19.066;2023-06-22T01:08:02;-18789.25;;;20.69;100.00
60583;BME280;46415;47.536;19.066;2023-06-22T01:11:17;-18789.66;;;20.71;100.00
60583;BME280;46415;47.536;19.066;2023-06-22T01:14:35;-18791.56;;;20.78;100.00
60583;BME280;46415;47.536;19.066;2023-06-22T01:17:43;-18793.06;;;20.84;100.00
60583;BME280;46415;47.536;19.066;2023-06-22T01:20:47;-18793.06;;;20.84;100.00
60583;BME280;46415;47.536;19.066;2023-06-22T01:30:55;-18795.50;;;20.93;100.00
60583;BME280;46415;47.536;19.066;2023-06-22T01:34:09;-18795.22;;;20.92;100.00
60583;BME280;46415;47.536;19.066;2023-06-22T01:37:14;-18796.31;;;20.96;100.00
60583;BME280;46415;47.536;19.066;2023-06-22T01:40:19;-18795.63;;;20.93;100.00
60583;BME280;46415;47.536;19.066;2023-06-22T01:43:24;-18796.59;;;20.97;100.00
60583;BME280;46415;47.536;19.066;2023-06-22T01:46:27;-18798.63;;;21.04;100.00
60583;BME280;46415;47.536;19.066;2023-06-22T01:49:31;-18801.19;;;21.14;100.00
60583;BME280;46415;47.536;19.066;2023-06-22T01:52:34;-18801.47;;;21.15;100.00
60583;BME280;46415;47.536;19.066;2023-06-22T01:55:37;-18802.16;;;21.17;100.00
60583;BME280;46415;47.536;19.066;2023-06-22T02:02:10;-18800.38;;;21.11;100.00
60583;BME280;46415;47.536;19.066;2023-06-22T02:05:16;-18799.16;;;21.06;100.00
60583;BME280;46415;47.536;19.066;2023-06-22T02:08:26;-18800.25;;;21.10;100.00
60583;BME280;46415;47.536;19.066;2023-06-22T02:11:35;-18799.97;;;21.09;100.00
60583;BME280;46415;47.536;19.066;2023-06-22T02:14:39;-18800.38;;;21.11;100.00
60583;BME280;46415;47.536;19.066;2023-06-22T02:17:42;-18797.53;;;21.00;100.00
60583;BME280;46415;47.536;19.066;2023-06-22T02:20:47;-18795.91;;;20.94;100.00
60583;BME280;46415;47.536;19.066;2023-06-22T02:23:50;-18795.09;;;20.91;100.00
60583;BME280;46415;47.536;19.066;2023-06-22T02:26:53;-18794.00;;;20.87;100.00
60583;BME280;46415;47.536;19.066;2023-06-22T02:29:56;-18790.88;;;20.75;100.00
60583;BME280;46415;47.536;19.066;2023-06-22T02:32:59;-18789.25;;;20.69;100.00
60583;BME280;46415;47.536;19.066;2023-06-22T02:36:02;-18787.75;;;20.64;100.00
60583;BME280;46415;47.536;19.066;2023-06-22T02:39:07;-18784.66;;;20.52;100.00
60583;BME280;46415;47.536;19.066;2023-06-22T02:42:11;-18783.16;;;20.47;100.00
60583;BME280;46415;47.536;19.066;2023-06-22T02:45:14;-18784.09;;;20.50;100.00
60583;BME280;46415;47.536;19.066;2023-06-22T02:48:17;-18782.75;;;20.45;100.00
60583;BME280;46415;47.536;19.066;2023-06-22T02:51:20;-18780.31;;;20.36;100.00
60583;BME280;46415;47.536;19.066;2023-06-22T02:54:23;-18779.75;;;20.34;100.00
60583;BME280;46415;47.536;19.066;2023-06-22T02:57:26;-18778.41;;;20.29;100.00
60583;BME280;46415;47.536;19.066;2023-06-22T03:00:29;-18777.03;;;20.24;100.00
60583;BME280;46415;47.536;19.066;2023-06-22T03:03:33;-18776.38;;;20.21;100.00
60583;BME280;46415;47.536;19.066;2023-06-22T03:06:36;-18776.38;;;20.21;100.00
60583;BME280;46415;47.536;19.066;2023-06-22T03:09:39;-18776.22;;;20.21;100.00
60583;BME280;46415;47.536;19.066;2023-06-22T03:12:43;-18775.69;;;20.19;100.00
60583;BME280;46415;47.536;19.066;2023-06-22T03:15:46;-18774.87;;;20.16;100.00
60583;BME280;46415;47.536;19.066;2023-06-22T03:18:49;-18776.50;;;20.22;100.00
60583;BME280;46415;47.536;19.066;2023-06-22T03:21:52;-18777.03;;;20.24;100.00
60583;BME280;46415;47.536;19.066;2023-06-22T03:24:54;-18778.41;;;20.29;100.00
60583;BME280;46415;47.536;19.066;2023-06-22T03:27:57;-18779.63;;;20.33;100.00
60583;BME280;46415;47.536;19.066;2023-06-22T03:31:00;-18780.97;;;20.38;100.00
60583;BME280;46415;47.536;19.066;2023-06-22T03:34:04;-18781.38;;;20.40;100.00
60583;BME280;46415;47.536;19.066;2023-06-22T03:37:07;-18779.91;;;20.34;100.00
60583;BME280;46415;47.536;19.066;2023-06-22T03:40:10;-18779.75;;;20.34;100.00
60583;BME280;46415;47.536;19.066;2023-06-22T03:43:14;-18777.59;;;20.26;100.00
60583;BME280;46415;47.536;19.066;2023-06-22T03:46:17;-18779.22;;;20.32;100.00
60583;BME280;46415;47.536;19.066;2023-06-22T03:49:20;-18782.47;;;20.44;100.00
60583;BME280;46415;47.536;19.066;2023-06-22T03:52:23;-18785.19;;;20.54;100.00
60583;BME280;46415;47.536;19.066;2023-06-22T03:55:27;-18786.69;;;20.60;100.00
60583;BME280;46415;47.536;19.066;2023-06-22T03:58:31;-18788.72;;;20.67;100.00
60583;BME280;46415;47.536;19.066;2023-06-22T04:01:35;-18789.00;;;20.68;100.00
60583;BME280;46415;47.536;19.066;2023-06-22T04:04:39;-18789.66;;;20.71;100.00
60583;BME280;46415;47.536;19.066;2023-06-22T04:07:42;-18794.56;;;20.89;100.00
60583;BME280;46415;47.536;19.066;2023-06-22T04:10:45;-18794.97;;;20.91;100.00
60583;BME280;46415;47.536;19.066;2023-06-22T04:13:48;-18793.59;;;20.86;100.00
60583;BME280;46415;47.536;19.066;2023-06-22T04:16:51;-18793.47;;;20.85;100.00
60583;BME280;46415;47.536;19.066;2023-06-22T04:19:54;-18794.41;;;20.89;100.00
60583;BME280;46415;47.536;19.066;2023-06-22T04:22:57;-18797.25;;;20.99;100.00
60583;BME280;46415;47.536;19.066;2023-06-22T04:26:00;-18799.84;;;21.09;100.00
60583;BME280;46415;47.536;19.066;2023-06-22T04:29:04;-18803.22;;;21.22;100.00
60583;BME280;46415;47.536;19.066;2023-06-22T04:32:08;-18806.91;;;21.35;100.00
60583;BME280;46415;47.536;19.066;2023-06-22T04:35:11;-18808.78;;;21.42;100.00
60583;BME280;46415;47.536;19.066;2023-06-22T04:38:13;-18811.09;;;21.51;100.00
60583;BME280;46415;47.536;19.066;2023-06-22T04:41:17;-18814.34;;;21.63;100.00
60583;BME280;46415;47.536;19.066;2023-06-22T04:44:26;-18815.84;;;21.69;100.00
60583;BME280;46415;47.536;19.066;2023-06-22T04:47:29;-18818.81;;;21.80;100.00
60583;BME280;46415;47.536;19.066;2023-06-22T04:50:32;-18822.34;;;21.93;100.00
60583;BME280;46415;47.536;19.066;2023-06-22T04:53:35;-18826.00;;;22.07;100.00
60583;BME280;46415;47.536;19.066;2023-06-22T04:56:38;-18829.13;;;22.18;100.00
60583;BME280;46415;47.536;19.066;2023-06-22T04:59:43;-18831.56;;;22.27;100.00
60583;BME280;46415;47.536;19.066;2023-06-22T05:02:46;-18835.34;;;22.42;100.00
60583;BME280;46415;47.536;19.066;2023-06-22T05:05:50;-18839.41;;;22.57;100.00
60583;BME280;46415;47.536;19.066;2023-06-22T05:08:56;-18838.75;;;22.54;100.00
60583;BME280;46415;47.536;19.066;2023-06-22T05:12:03;-18837.66;;;22.50;100.00
60583;BME280;46415;47.536;19.066;2023-06-22T05:15:09;-18837.78;;;22.51;100.00
60583;BME280;46415;47.536;19.066;2023-06-22T05:18:12;-18840.38;;;22.60;100.00
60583;BME280;46415;47.536;19.066;2023-06-22T05:21:15;-18843.47;;;22.72;100.00
60583;BME280;46415;47.536;19.066;2023-06-22T05:24:18;-18845.66;;;22.80;100.00
60583;BME280;46415;47.536;19.066;2023-06-22T05:27:21;-18846.31;;;22.83;100.00
60583;BME280;46415;47.536;19.066;2023-06-22T05:30:24;-18847.81;;;22.88;100.00
60583;BME280;46415;47.536;19.066;2023-06-22T05:33:26;-18851.34;;;23.01;100.00
60583;BME280;46415;47.536;19.066;2023-06-22T05:36:29;-18855.94;;;23.18;100.00
60583;BME280;46415;47.536;19.066;2023-06-22T05:39:32;-18860.41;;;23.35;100.00
60583;BME280;46415;47.536;19.066;2023-06-22T05:42:35;-18864.47;;;23.50;100.00
60583;BME280;46415;47.536;19.066;2023-06-22T05:45:37;-18863.78;;;23.48;100.00
60583;BME280;46415;47.536;19.066;2023-06-22T05:48:40;-18863.78;;;23.48;100.00
60583;BME280;46415;47.536;19.066;2023-06-22T05:51:43;-18871.91;;;23.78;100.00
60583;BME280;46415;47.536;19.066;2023-06-22T05:54:46;-18878.13;;;24.01;100.00
60583;BME280;46415;47.536;19.066;2023-06-22T05:57:48;-18878.41;;;24.02;100.00
60583;BME280;46415;47.536;19.066;2023-06-22T06:00:51;-18884.47;;;24.25;100.00
60583;BME280;46415;47.536;19.066;2023-06-22T06:03:54;-18888.41;;;24.40;100.00
60583;BME280;46415;47.536;19.066;2023-06-22T06:06:57;-18888.69;;;24.41;100.00
60583;BME280;46415;47.536;19.066;2023-06-22T06:10:00;-18891.50;;;24.52;100.00
60583;BME280;46415;47.536;19.066;2023-06-22T06:13:06;-18892.59;;;24.56;100.00
60583;BME280;46415;47.536;19.066;2023-06-22T06:16:09;-18896.66;;;24.71;100.00
60583;BME280;46415;47.536;19.066;2023-06-22T06:19:11;-18899.91;;;24.83;97.12
60583;BME280;46415;47.536;19.066;2023-06-22T06:22:15;-18905.03;;;25.02;95.46
60583;BME280;46415;47.536;19.066;2023-06-22T06:25:17;-18911.50;;;25.27;95.38
60583;BME280;46415;47.536;19.066;2023-06-22T06:28:24;-18914.75;;;25.39;97.79
60583;BME280;46415;47.536;19.066;2023-06-22T06:31:27;-18917.03;;;25.47;94.79
60583;BME280;46415;47.536;19.066;2023-06-22T06:34:33;-18917.31;;;25.48;89.54
60583;BME280;46415;47.536;19.066;2023-06-22T06:37:37;-18922.31;;;25.67;84.79
60583;BME280;46415;47.536;19.066;2023-06-22T06:40:40;-18925.56;;;25.79;83.17
60583;BME280;46415;47.536;19.066;2023-06-22T06:43:43;-18928.78;;;25.91;85.03
60583;BME280;46415;47.536;19.066;2023-06-22T06:46:46;-18934.72;;;26.14;82.46
60583;BME280;46415;47.536;19.066;2023-06-22T06:49:49;-18931.09;;;26.00;79.27
60583;BME280;46415;47.536;19.066;2023-06-22T06:52:52;-18933.25;;;26.08;82.31
60583;BME280;46415;47.536;19.066;2023-06-22T06:55:55;-18938.66;;;26.28;84.86
60583;BME280;46415;47.536;19.066;2023-06-22T06:58:58;-18942.97;;;26.45;87.61
60583;BME280;46415;47.536;19.066;2023-06-22T07:02:01;-18943.50;;;26.47;82.04
60583;BME280;46415;47.536;19.066;2023-06-22T07:05:04;-18940.94;;;26.37;78.69
60583;BME280;46415;47.536;19.066;2023-06-22T07:08:07;-18944.31;;;26.50;80.31
60583;BME280;46415;47.536;19.066;2023-06-22T07:11:10;-18945.78;;;26.55;76.35
60583;BME280;46415;47.536;19.066;2023-06-22T07:14:13;-18948.75;;;26.66;71.40
60583;BME280;46415;47.536;19.066;2023-06-22T07:17:16;-18947.28;;;26.61;68.31
60583;BME280;46415;47.536;19.066;2023-06-22T07:20:19;-18957.00;;;26.97;69.18
60583;BME280;46415;47.536;19.066;2023-06-22T07:23:22;-18961.31;;;27.13;72.37
60583;BME280;46415;47.536;19.066;2023-06-22T07:26:25;-18962.09;;;27.16;65.46
60583;BME280;46415;47.536;19.066;2023-06-22T07:29:28;-18967.75;;;27.38;64.32
60583;BME280;46415;47.536;19.066;2023-06-22T07:32:30;-18972.09;;;27.54;62.87
60583;BME280;46415;47.536;19.066;2023-06-22T07:35:33;-18976.94;;;27.72;67.26
60583;BME280;46415;47.536;19.066;2023-06-22T07:38:36;-18978.00;;;27.76;60.96
60583;BME280;46415;47.536;19.066;2023-06-22T07:41:39;-18974.91;;;27.65;61.30
60583;BME280;46415;47.536;19.066;2023-06-22T07:44:43;-18976.41;;;27.70;65.92
60583;BME280;46415;47.536;19.066;2023-06-22T07:47:46;-18977.88;;;27.76;64.38
60583;BME280;46415;47.536;19.066;2023-06-22T07:50:49;-18980.03;;;27.84;59.99
60583;BME280;46415;47.536;19.066;2023-06-22T07:53:52;-18978.00;;;27.76;59.27
60583;BME280;46415;47.536;19.066;2023-06-22T07:56:55;-18983.94;;;27.98;62.68
60583;BME280;46415;47.536;19.066;2023-06-22T07:59:59;-18982.84;;;27.94;60.08
60583;BME280;46415;47.536;19.066;2023-06-22T08:03:02;-18984.75;;;28.01;59.04
60583;BME280;46415;47.536;19.066;2023-06-22T08:06:09;-18990.25;;;28.22;58.20
60583;BME280;46415;47.536;19.066;2023-06-22T08:09:12;-18993.50;;;28.34;55.95
60583;BME280;46415;47.536;19.066;2023-06-22T08:12:15;-18995.25;;;28.41;55.71
60583;BME280;46415;47.536;19.066;2023-06-22T08:15:18;-18992.00;;;28.29;55.85
60583;BME280;46415;47.536;19.066;2023-06-22T08:18:21;-18991.59;;;28.27;57.01
60583;BME280;46415;47.536;19.066;2023-06-22T08:21:24;-18991.88;;;28.28;54.16
60583;BME280;46415;47.536;19.066;2023-06-22T08:24:27;-18996.59;;;28.46;56.64
60583;BME280;46415;47.536;19.066;2023-06-22T08:27:32;-19003.31;;;28.71;59.72
60583;BME280;46415;47.536;19.066;2023-06-22T08:30:35;-19002.62;;;28.69;59.20
60583;BME280;46415;47.536;19.066;2023-06-22T08:33:38;-18998.19;;;28.52;56.01
60583;BME280;46415;47.536;19.066;2023-06-22T08:36:51;-18997.00;;;28.48;57.68
60583;BME280;46415;47.536;19.066;2023-06-22T08:39:54;-18998.75;;;28.54;58.38
60583;BME280;46415;47.536;19.066;2023-06-22T08:42:58;-19006.53;;;28.84;58.04
60583;BME280;46415;47.536;19.066;2023-06-22T08:46:00;-19010.59;;;28.99;55.69
60583;BME280;46415;47.536;19.066;2023-06-22T08:49:05;-19014.88;;;29.15;54.25
60583;BME280;46415;47.536;19.066;2023-06-22T08:52:08;-19016.50;;;29.21;55.58
60583;BME280;46415;47.536;19.066;2023-06-22T08:55:11;-19013.53;;;29.10;55.13
60583;BME280;46415;47.536;19.066;2023-06-22T08:58:14;-19007.34;;;28.87;54.73
60583;BME280;46415;47.536;19.066;2023-06-22T09:01:17;-19018.38;;;29.28;54.56
60583;BME280;46415;47.536;19.066;2023-06-22T09:04:19;-19016.09;;;29.19;54.60
60583;BME280;46415;47.536;19.066;2023-06-22T09:07:25;-19014.88;;;29.15;55.29
60583;BME280;46415;47.536;19.066;2023-06-22T09:10:28;-19021.34;;;29.39;54.96
60583;BME280;46415;47.536;19.066;2023-06-22T09:13:32;-19023.91;;;29.49;52.83
60583;BME280;46415;47.536;19.066;2023-06-22T09:16:36;-19033.97;;;29.87;52.55
60583;BME280;46415;47.536;19.066;2023-06-22T09:19:39;-19035.59;;;29.93;52.56
60583;BME280;46415;47.536;19.066;2023-06-22T09:22:42;-19035.72;;;29.93;53.55
60583;BME280;46415;47.536;19.066;2023-06-22T09:25:45;-19044.97;;;30.28;54.30
60583;BME280;46415;47.536;19.066;2023-06-22T09:28:50;-19055.06;;;30.66;54.28
60583;BME280;46415;47.536;19.066;2023-06-22T09:31:52;-19057.75;;;30.76;50.91
60583;BME280;46415;47.536;19.066;2023-06-22T09:34:58;-19063.91;;;31.00;50.61
60583;BME280;46415;47.536;19.066;2023-06-22T09:38:01;-19066.47;;;31.09;51.23
60583;BME280;46415;47.536;19.066;2023-06-22T09:41:04;-19073.84;;;31.37;52.30
60583;BME280;46415;47.536;19.066;2023-06-22T09:44:07;-19075.44;;;31.43;49.80
60583;BME280;46415;47.536;19.066;2023-06-22T09:47:10;-19076.38;;;31.47;51.41
60583;BME280;46415;47.536;19.066;2023-06-22T09:50:13;-19076.38;;;31.47;49.91
60583;BME280;46415;47.536;19.066;2023-06-22T09:53:16;-19080.41;;;31.62;50.71
60583;BME280;46415;47.536;19.066;2023-06-22T09:56:19;-19081.63;;;31.67;49.82
60583;BME280;46415;47.536;19.066;2023-06-22T09:59:22;-19070.75;;;31.26;49.42
60583;BME280;46415;47.536;19.066;2023-06-22T10:02:25;-19072.22;;;31.31;50.14
60583;BME280;46415;47.536;19.066;2023-06-22T10:05:28;-19078.00;;;31.53;50.19
60583;BME280;46415;47.536;19.066;2023-06-22T10:08:31;-19069.41;;;31.20;50.66
60583;BME280;46415;47.536;19.066;2023-06-22T10:11:34;-19072.09;;;31.31;50.24
60583;BME280;46415;47.536;19.066;2023-06-22T10:14:37;-19074.25;;;31.39;49.38
60583;BME280;46415;47.536;19.066;2023-06-22T10:17:40;-19075.44;;;31.43;49.77
60583;BME280;46415;47.536;19.066;2023-06-22T10:20:46;-19072.50;;;31.32;49.44
60583;BME280;46415;47.536;19.066;2023-06-22T10:23:49;-19074.25;;;31.39;49.52
60583;BME280;46415;47.536;19.066;2023-06-22T10:26:52;-19075.19;;;31.42;50.41
60583;BME280;46415;47.536;19.066;2023-06-22T10:29:55;-19083.22;;;31.73;50.31
60583;BME280;46415;47.536;19.066;2023-06-22T10:32:57;-19084.84;;;31.79;47.88
60583;BME280;46415;47.536;19.066;2023-06-22T10:36:00;-19087.53;;;31.89;48.42
60583;BME280;46415;47.536;19.066;2023-06-22T10:39:03;-19092.59;;;32.08;49.81
60583;BME280;46415;47.536;19.066;2023-06-22T10:42:06;-19093.28;;;32.11;48.11
60583;BME280;46415;47.536;19.066;2023-06-22T10:45:09;-19097.97;;;32.28;49.74
60583;BME280;46415;47.536;19.066;2023-06-22T10:48:12;-19103.06;;;32.48;48.25
60583;BME280;46415;47.536;19.066;2023-06-22T10:51:14;-19107.09;;;32.63;48.25
60583;BME280;46415;47.536;19.066;2023-06-22T10:54:17;-19097.84;;;32.28;45.99
60583;BME280;46415;47.536;19.066;2023-06-22T10:57:22;-19096.50;;;32.23;47.14
60583;BME280;46415;47.536;19.066;2023-06-22T11:00:25;-19105.34;;;32.56;47.12
60583;BME280;46415;47.536;19.066;2023-06-22T11:03:27;-19112.56;;;32.83;46.68
60583;BME280;46415;47.536;19.066;2023-06-22T11:06:30;-19113.09;;;32.86;47.39
60583;BME280;46415;47.536;19.066;2023-06-22T11:09:33;-19117.12;;;33.01;45.54
60583;BME280;46415;47.536;19.066;2023-06-22T11:12:36;-19118.19;;;33.05;45.92
60583;BME280;46415;47.536;19.066;2023-06-22T11:15:40;-19124.75;;;33.30;45.65
60583;BME280;46415;47.536;19.066;2023-06-22T11:18:43;-19126.22;;;33.35;43.75
60583;BME280;46415;47.536;19.066;2023-06-22T11:21:45;-19127.44;;;33.40;46.03
60583;BME280;46415;47.536;19.066;2023-06-22T11:24:48;-19127.84;;;33.41;44.78
60583;BME280;46415;47.536;19.066;2023-06-22T11:27:51;-19127.97;;;33.42;45.10
60583;BME280;46415;47.536;19.066;2023-06-22T11:30:56;-19128.37;;;33.43;43.29
60583;BME280;46415;47.536;19.066;2023-06-22T11:34:02;-19126.22;;;33.35;45.04
60583;BME280;46415;47.536;19.066;2023-06-22T11:37:05;-19131.31;;;33.54;42.78
60583;BME280;46415;47.536;19.066;2023-06-22T11:40:08;-19136.66;;;33.75;43.89
60583;BME280;46415;47.536;19.066;2023-06-22T11:43:12;-19141.47;;;33.93;42.61
60583;BME280;46415;47.536;19.066;2023-06-22T11:46:15;-19149.22;;;34.22;43.59
60583;BME280;46415;47.536;19.066;2023-06-22T11:49:17;-19153.50;;;34.38;41.18
60583;BME280;46415;47.536;19.066;2023-06-22T11:52:21;-19142.53;;;33.97;42.01
60583;BME280;46415;47.536;19.066;2023-06-22T11:55:24;-19142.94;;;33.98;42.93
60583;BME280;46415;47.536;19.066;2023-06-22T11:58:27;-19139.87;;;33.87;43.40
60583;BME280;46415;47.536;19.066;2023-06-22T12:01:30;-19132.91;;;33.60;43.02
60583;BME280;46415;47.536;19.066;2023-06-22T12:04:33;-19136.78;;;33.75;43.41
60583;BME280;46415;47.536;19.066;2023-06-22T12:07:35;-19148.56;;;34.20;42.17
60583;BME280;46415;47.536;19.066;2023-06-22T12:10:38;-19154.84;;;34.44;42.08
60583;BME280;46415;47.536;19.066;2023-06-22T12:13:41;-19158.44;;;34.57;40.27
60583;BME280;46415;47.536;19.066;2023-06-22T12:16:44;-19157.78;;;34.55;41.39
60583;BME280;46415;47.536;19.066;2023-06-22T12:19:47;-19157.25;;;34.53;41.08
60583;BME280;46415;47.536;19.066;2023-06-22T12:22:49;-19148.28;;;34.19;41.66
60583;BME280;46415;47.536;19.066;2023-06-22T12:25:54;-19152.84;;;34.36;40.79
60583;BME280;46415;47.536;19.066;2023-06-22T12:28:57;-19163.41;;;34.76;41.21
60583;BME280;46415;47.536;19.066;2023-06-22T12:31:59;-19159.13;;;34.60;40.33
60583;BME280;46415;47.536;19.066;2023-06-22T12:35:02;-19151.91;;;34.32;43.22
60583;BME280;46415;47.536;19.066;2023-06-22T12:38:05;-19143.22;;;33.99;40.76
60583;BME280;46415;47.536;19.066;2023-06-22T12:41:11;-19146.28;;;34.11;41.29
60583;BME280;46415;47.536;19.066;2023-06-22T12:44:14;-19141.22;;;33.92;40.98
60583;BME280;46415;47.536;19.066;2023-06-22T12:47:17;-19139.59;;;33.86;41.14
60583;BME280;46415;47.536;19.066;2023-06-22T12:50:19;-19140.81;;;33.90;42.61
60583;BME280;46415;47.536;19.066;2023-06-22T12:53:22;-19138.41;;;33.81;41.88
60583;BME280;46415;47.536;19.066;2023-06-22T12:56:26;-19136.66;;;33.75;41.33
60583;BME280;46415;47.536;19.066;2023-06-22T12:59:29;-19137.34;;;33.77;41.88
60583;BME280;46415;47.536;19.066;2023-06-22T13:02:31;-19137.88;;;33.79;42.38
60583;BME280;46415;47.536;19.066;2023-06-22T13:05:34;-19148.69;;;34.20;41.46
60583;BME280;46415;47.536;19.066;2023-06-22T13:08:38;-19150.84;;;34.28;41.72
60583;BME280;46415;47.536;19.066;2023-06-22T13:11:44;-19150.44;;;34.27;42.62
60583;BME280;46415;47.536;19.066;2023-06-22T13:14:47;-19151.63;;;34.31;42.97
60583;BME280;46415;47.536;19.066;2023-06-22T13:17:50;-19148.44;;;34.19;42.10
60583;BME280;46415;47.536;19.066;2023-06-22T13:20:54;-19155.91;;;34.48;40.85
60583;BME280;46415;47.536;19.066;2023-06-22T13:23:57;-19157.66;;;34.54;41.14
60583;BME280;46415;47.536;19.066;2023-06-22T13:27:00;-19166.88;;;34.89;41.20
60583;BME280;46415;47.536;19.066;2023-06-22T13:30:03;-19174.06;;;35.16;40.17
60583;BME280;46415;47.536;19.066;2023-06-22T13:33:06;-19177.00;;;35.28;40.64
60583;BME280;46415;47.536;19.066;2023-06-22T13:36:09;-19178.22;;;35.32;38.95
60583;BME280;46415;47.536;19.066;2023-06-22T13:39:12;-19175.69;;;35.22;40.49
60583;BME280;46415;47.536;19.066;2023-06-22T13:42:15;-19174.47;;;35.18;39.54
60583;BME280;46415;47.536;19.066;2023-06-22T13:45:17;-19175.28;;;35.21;40.14
60583;BME280;46415;47.536;19.066;2023-06-22T13:48:21;-19179.41;;;35.37;40.04
60583;BME280;46415;47.536;19.066;2023-06-22T13:51:25;-19175.69;;;35.22;39.40
60583;BME280;46415;47.536;19.066;2023-06-22T13:54:28;-19176.75;;;35.27;40.24
60583;BME280;46415;47.536;19.066;2023-06-22T13:57:33;-19177.41;;;35.29;39.83
60583;BME280;46415;47.536;19.066;2023-06-22T14:00:36;-19181.00;;;35.43;39.88
60583;BME280;46415;47.536;19.066;2023-06-22T14:03:40;-19191.97;;;35.84;39.21
60583;BME280;46415;47.536;19.066;2023-06-22T14:06:42;-19194.63;;;35.94;37.93
60583;BME280;46415;47.536;19.066;2023-06-22T14:09:45;-19193.81;;;35.91;39.29
60583;BME280;46415;47.536;19.066;2023-06-22T14:12:48;-19190.63;;;35.79;38.57
60583;BME280;46415;47.536;19.066;2023-06-22T14:15:51;-19189.97;;;35.77;38.58
60583;BME280;46415;47.536;19.066;2023-06-22T14:18:54;-19191.41;;;35.82;37.10
60583;BME280;46415;47.536;19.066;2023-06-22T14:21:59;-19204.62;;;36.32;37.80
60583;BME280;46415;47.536;19.066;2023-06-22T14:25:02;-19211.41;;;36.58;38.65
60583;BME280;46415;47.536;19.066;2023-06-22T14:28:05;-19212.75;;;36.63;37.05
60583;BME280;46415;47.536;19.066;2023-06-22T14:31:08;-19223.13;;;37.03;36.21
60583;BME280;46415;47.536;19.066;2023-06-22T14:34:11;-19228.47;;;37.23;36.04
60583;BME280;46415;47.536;19.066;2023-06-22T14:37:13;-19236.84;;;37.55;36.00
60583;BME280;46415;47.536;19.066;2023-06-22T14:40:16;-19244.72;;;37.85;35.75
60583;BME280;46415;47.536;19.066;2023-06-22T14:43:19;-19250.44;;;38.07;34.66
60583;BME280;46415;47.536;19.066;2023-06-22T14:46:22;-19252.16;;;38.13;33.87
60583;BME280;46415;47.536;19.066;2023-06-22T14:49:25;-19267.19;;;38.70;33.04
60583;BME280;46415;47.536;19.066;2023-06-22T14:52:28;-19294.13;;;39.73;31.92
60583;BME280;46415;47.536;19.066;2023-06-22T14:55:31;-19322.38;;;40.81;30.95
60583;BME280;46415;47.536;19.066;2023-06-22T14:58:34;-19349.78;;;41.86;28.81
60583;BME280;46415;47.536;19.066;2023-06-22T15:01:37;-19367.50;;;42.54;26.83
60583;BME280;46415;47.536;19.066;2023-06-22T15:04:43;-19382.56;;;43.11;26.23
60583;BME280;46415;47.536;19.066;2023-06-22T15:07:46;-19393.78;;;43.54;25.19
60583;BME280;46415;47.536;19.066;2023-06-22T15:10:49;-19419.25;;;44.52;24.57
60583;BME280;46415;47.536;19.066;2023-06-22T15:13:52;-19434.53;;;45.11;23.95
60583;BME280;46415;47.536;19.066;2023-06-22T15:16:55;-19436.09;;;45.17;24.25
60583;BME280;46415;47.536;19.066;2023-06-22T15:19:58;-19428.72;;;44.89;24.42
60583;BME280;46415;47.536;19.066;2023-06-22T15:23:01;-19427.03;;;44.82;23.96
60583;BME280;46415;47.536;19.066;2023-06-22T15:26:04;-19444.28;;;45.48;23.38
60583;BME280;46415;47.536;19.066;2023-06-22T15:29:10;-19437.03;;;45.21;23.62
60583;BME280;46415;47.536;19.066;2023-06-22T15:32:13;-19433.75;;;45.08;23.38
60583;BME280;46415;47.536;19.066;2023-06-22T15:35:16;-19433.06;;;45.05;24.30
60583;BME280;46415;47.536;19.066;2023-06-22T15:38:21;-19461.22;;;46.14;22.71
60583;BME280;46415;47.536;19.066;2023-06-22T15:41:24;-19475.81;;;46.70;22.43
60583;BME280;46415;47.536;19.066;2023-06-22T15:44:27;-19469.13;;;46.44;21.30
60583;BME280;46415;47.536;19.066;2023-06-22T15:47:30;-19468.19;;;46.41;21.80
60583;BME280;46415;47.536;19.066;2023-06-22T15:50:33;-19427.69;;;44.85;23.22